Valentine, Indiana
Current Conditions -  °F | °C
As of 2:15 AM on Friday 31 Oct 2014 (Local Time) from KIRS Reporting Station
Light Rain Light Rain  
Wind Chill: 40°   Ceiling: 4400
Heat Index: 43°   Visibility: 10mi
Dew Point: 37°   Wind: 5mph
Humidity: 81%   Direction: 230°SW
Pressure: 29.98"   Gusts: NA
Location:  41.6561°N, 85.3683°W
Report Text: KIRS 310615Z AUTO 23004KT 10SM -RA SCT035 BKN044 OVC050 06/03 A2998 RMK AO2
Loading
Personal Weather Stations






























Interactive Weather Map
Tropical Storm Tracking
New forecast layout! Learn more

10-Day Weather Forecast

Advertisements
Track Severe Weather on mobile